createdAt,value
2022-09-10T00:01:55.373Z,4.54
2022-09-10T00:07:27.352Z,4.50
2022-09-10T00:12:58.872Z,4.50
2022-09-10T00:18:31.042Z,4.47
2022-09-10T00:24:02.180Z,4.50
2022-09-10T00:29:33.483Z,4.47
2022-09-10T00:35:05.238Z,4.47
2022-09-10T00:40:36.499Z,4.47
2022-09-10T00:46:07.765Z,4.47
2022-09-10T00:51:39.321Z,4.47
2022-09-10T01:02:40.438Z,4.44
2022-09-10T01:08:12.181Z,4.47
2022-09-10T01:13:43.776Z,4.44
2022-09-10T01:19:15.553Z,4.47
2022-09-10T01:24:47.443Z,4.47
2022-09-10T01:35:48.458Z,4.50
2022-09-10T01:41:19.881Z,4.50
2022-09-10T01:46:51.021Z,4.50
2022-09-10T01:52:22.369Z,4.50
2022-09-10T01:57:53.819Z,4.50
2022-09-10T02:03:25.505Z,4.50
2022-09-10T02:08:57.394Z,4.50
2022-09-10T02:14:29.056Z,4.50
2022-09-10T02:20:00.771Z,4.50
2022-09-10T02:25:32.609Z,4.47
2022-09-10T02:31:04.305Z,4.50
2022-09-10T02:36:35.722Z,4.47
2022-09-10T02:42:07.464Z,4.47
2022-09-10T02:53:08.928Z,4.47
2022-09-10T02:58:40.368Z,4.44
2022-09-10T03:04:12.319Z,4.44
2022-09-10T03:09:43.660Z,4.44
2022-09-10T03:15:15.537Z,4.40
2022-09-10T03:20:46.987Z,4.40
2022-09-10T03:26:18.539Z,4.40
2022-09-10T03:31:50.124Z,4.40
2022-09-10T03:37:21.479Z,4.40
2022-09-10T03:42:55.142Z,4.40
2022-09-10T03:48:26.885Z,4.40
2022-09-10T03:53:58.474Z,4.40
2022-09-10T03:59:30.329Z,4.40
2022-09-10T04:05:01.768Z,4.40
2022-09-10T04:10:33.810Z,4.44
2022-09-10T04:16:05.476Z,4.44
2022-09-10T04:21:37.186Z,4.44
2022-09-10T04:27:09.165Z,4.44
2022-09-10T04:32:40.796Z,4.47
2022-09-10T04:38:12.610Z,4.47
2022-09-10T04:43:44.558Z,4.47
2022-09-10T04:51:36.813Z,4.50
2022-09-10T05:02:37.777Z,4.50
2022-09-10T05:08:09.484Z,4.57
2022-09-10T05:13:41.072Z,4.57
2022-09-10T05:19:12.858Z,4.61
2022-09-10T05:21:35.329Z,4.61
2022-09-10T05:27:06.973Z,4.61
2022-09-10T05:32:38.398Z,4.64
2022-09-10T05:38:11.190Z,4.64
2022-09-10T05:43:42.900Z,4.64
2022-09-10T05:49:14.545Z,4.64
2022-09-10T05:54:45.860Z,4.64
2022-09-10T06:00:17.357Z,4.67
2022-09-10T06:11:18.350Z,4.64
2022-09-10T06:16:50.163Z,4.67
2022-09-10T06:22:21.986Z,4.67
2022-09-10T06:27:53.554Z,4.67
2022-09-10T06:33:25.348Z,4.64
2022-09-10T06:38:57.287Z,4.64
2022-09-10T06:44:28.836Z,4.64
2022-09-10T06:50:00.628Z,4.64
2022-09-10T06:55:32.257Z,4.64
2022-09-10T07:01:04.332Z,4.64
2022-09-10T07:06:35.894Z,4.64
2022-09-10T07:12:07.701Z,4.64
2022-09-10T07:17:39.546Z,4.64
2022-09-10T07:23:12.850Z,4.64
2022-09-10T07:28:44.121Z,4.64
2022-09-10T07:34:15.637Z,4.67
2022-09-10T07:39:49.500Z,4.67
2022-09-10T07:45:21.486Z,4.74
2022-09-10T07:50:53.201Z,4.74
2022-09-10T08:01:54.408Z,4.84
2022-09-10T08:07:25.573Z,4.91
2022-09-10T08:18:28.798Z,4.88
2022-09-10T08:24:00.538Z,4.91
2022-09-10T08:29:31.951Z,4.88
2022-09-10T08:35:03.847Z,4.88
2022-09-10T08:40:35.627Z,4.88
2022-09-10T08:46:06.976Z,4.88
2022-09-10T08:51:38.550Z,4.84
2022-09-10T08:57:10.244Z,4.81
2022-09-10T09:02:49.847Z,4.81
2022-09-10T09:08:13.828Z,4.88
2022-09-10T09:13:45.560Z,4.91
2022-09-10T09:19:17.567Z,4.98
2022-09-10T09:24:49.434Z,5.05
2022-09-10T09:30:20.941Z,5.08
2022-09-10T09:35:52.808Z,5.08
2022-09-10T09:41:24.476Z,5.11
2022-09-10T09:46:56.060Z,5.11
2022-09-10T09:52:27.750Z,5.15
2022-09-10T09:57:59.369Z,5.15
2022-09-10T10:03:30.864Z,5.15
2022-09-10T10:09:02.206Z,5.15
2022-09-10T10:14:33.656Z,5.18
2022-09-10T10:20:05.307Z,5.15
2022-09-10T10:25:37.258Z,5.11
2022-09-10T10:31:08.770Z,5.05
2022-09-10T10:36:40.163Z,5.05
2022-09-10T10:42:11.843Z,5.05
2022-09-10T10:53:14.995Z,5.01
2022-09-10T11:04:16.358Z,4.98
2022-09-10T11:09:53.643Z,4.95
2022-09-10T11:15:25.033Z,4.91
2022-09-10T11:20:57.024Z,4.91
2022-09-10T11:26:28.309Z,4.88
2022-09-10T11:31:59.681Z,4.91
2022-09-10T11:37:31.114Z,4.95
2022-09-10T11:43:02.685Z,4.95
2022-09-10T11:48:34.422Z,4.98
2022-09-10T11:54:06.392Z,5.01
2022-09-10T11:59:38.086Z,5.08
2022-09-10T12:05:09.531Z,5.11
2022-09-10T12:10:41.077Z,5.11
2022-09-10T12:16:12.718Z,5.18
2022-09-10T12:21:44.007Z,5.22
2022-09-10T12:27:15.424Z,5.22
2022-09-10T12:32:47.451Z,5.25
2022-09-10T12:38:18.947Z,5.28
2022-09-10T12:43:50.401Z,5.28
2022-09-10T12:49:22.272Z,5.35
2022-09-10T12:54:54.076Z,5.39
2022-09-10T13:00:26.652Z,5.39
2022-09-10T13:05:58.300Z,5.42
2022-09-10T13:11:29.924Z,5.42
2022-09-10T13:17:01.632Z,5.42
2022-09-10T13:28:07.102Z,5.42
2022-09-10T13:33:38.779Z,5.42
2022-09-10T13:39:10.420Z,5.42
2022-09-10T13:44:42.484Z,5.45
2022-09-10T13:50:14.044Z,5.42
2022-09-10T13:55:45.517Z,5.45
2022-09-10T14:01:17.369Z,5.49
2022-09-10T14:06:49.060Z,5.45
2022-09-10T14:12:20.840Z,5.45
2022-09-10T14:17:52.657Z,5.42
2022-09-10T14:25:45.946Z,5.42
2022-09-10T14:31:17.485Z,5.42
2022-09-10T14:36:49.170Z,5.42
2022-09-10T14:42:20.888Z,5.45
2022-09-10T14:47:52.168Z,5.42
2022-09-10T14:53:23.443Z,5.42
2022-09-10T14:58:55.133Z,5.39
2022-09-10T15:04:26.934Z,5.35
2022-09-10T15:09:58.547Z,5.32
2022-09-10T15:15:29.917Z,5.28
2022-09-10T15:21:01.474Z,5.18
2022-09-10T15:26:32.963Z,5.08
2022-09-10T15:37:34.178Z,4.88
2022-09-10T15:43:05.866Z,4.84
2022-09-10T15:48:37.743Z,4.81
2022-09-10T15:54:09.425Z,4.84
2022-09-10T15:59:40.839Z,4.81
2022-09-10T16:05:12.477Z,4.84
2022-09-10T16:10:44.163Z,4.88
2022-09-10T16:16:16.030Z,4.88
2022-09-10T16:21:47.679Z,4.84
2022-09-10T16:27:18.889Z,4.84
2022-09-10T16:32:50.304Z,4.84
2022-09-10T16:38:21.471Z,4.84
2022-09-10T16:43:53.173Z,4.84
2022-09-10T16:49:24.716Z,4.84
2022-09-10T16:54:56.237Z,4.84
2022-09-10T17:00:28.014Z,4.81
2022-09-10T17:05:59.382Z,4.81
2022-09-10T17:11:31.014Z,4.78
2022-09-10T17:17:02.586Z,4.74
2022-09-10T17:22:33.980Z,4.74
2022-09-10T17:28:05.311Z,4.74
2022-09-10T17:33:36.942Z,4.71
2022-09-10T17:39:08.230Z,4.74
2022-09-10T17:44:39.812Z,4.71
2022-09-10T17:50:11.244Z,4.71
2022-09-10T17:55:42.865Z,4.71
2022-09-10T18:01:14.435Z,4.71
2022-09-10T18:06:50.185Z,4.71
2022-09-10T18:12:17.275Z,4.67
2022-09-10T18:17:48.846Z,4.67
2022-09-10T18:23:20.059Z,4.67
2022-09-10T18:28:51.569Z,4.67
2022-09-10T18:34:23.631Z,4.67
2022-09-10T18:39:55.238Z,4.67
2022-09-10T18:45:26.967Z,4.67
2022-09-10T18:50:59.117Z,4.64
2022-09-10T18:56:30.487Z,4.67
2022-09-10T19:02:02.009Z,4.67
2022-09-10T19:07:33.559Z,4.64
2022-09-10T19:13:04.791Z,4.67
2022-09-10T19:18:36.777Z,4.67
2022-09-10T19:24:08.509Z,4.67
2022-09-10T19:35:11.773Z,4.67
2022-09-10T19:40:43.062Z,4.67
2022-09-10T19:46:14.523Z,4.64
2022-09-10T19:51:45.978Z,4.64
2022-09-10T19:57:17.612Z,4.64
2022-09-10T20:02:49.086Z,4.64
2022-09-10T20:08:20.778Z,4.64
2022-09-10T20:13:52.325Z,4.64
2022-09-10T20:19:24.083Z,4.64
2022-09-10T20:30:24.921Z,4.61
2022-09-10T20:35:56.655Z,4.64
2022-09-10T20:41:28.514Z,4.64
2022-09-10T20:47:00.186Z,4.64
2022-09-10T20:52:31.771Z,4.64
2022-09-10T20:58:03.569Z,4.64
2022-09-10T21:03:35.143Z,4.64
2022-09-10T21:09:06.710Z,4.61
2022-09-10T21:14:38.036Z,4.64
2022-09-10T21:20:10.227Z,4.64
2022-09-10T21:25:41.816Z,4.64
2022-09-10T21:31:13.273Z,4.64
2022-09-10T21:36:44.588Z,4.61
2022-09-10T21:42:16.236Z,4.64
2022-09-10T21:47:47.668Z,4.64
2022-09-10T21:53:19.311Z,4.64
2022-09-10T21:58:50.578Z,4.64
2022-09-10T22:04:23.251Z,4.61
2022-09-10T22:09:53.680Z,4.61
2022-09-10T22:15:24.884Z,4.61
2022-09-10T22:20:56.658Z,4.61
2022-09-10T22:26:27.930Z,4.57
2022-09-10T22:31:59.424Z,4.57
2022-09-10T22:37:30.675Z,4.57
2022-09-10T22:43:02.006Z,4.57
2022-09-10T22:48:33.708Z,4.57
2022-09-10T22:54:05.229Z,4.57
2022-09-10T22:59:36.802Z,4.57
2022-09-10T23:05:08.581Z,4.57
2022-09-10T23:10:40.334Z,4.57
2022-09-10T23:16:11.731Z,4.57
2022-09-10T23:21:43.681Z,4.61
2022-09-10T23:27:14.962Z,4.57
2022-09-10T23:32:46.305Z,4.61
2022-09-10T23:38:17.985Z,4.61
2022-09-10T23:43:49.331Z,4.61
2022-09-10T23:51:33.948Z,4.61
2022-09-10T23:57:05.531Z,4.61
